sensor_id;sensor_type;location;lat;lon;timestamp;temperature;humidity
9730;DHT22;4904;49.152;11.004;2023-07-29T00:02:23;18.30;99.90
9730;DHT22;4904;49.152;11.004;2023-07-29T00:04:50;18.30;99.90
9730;DHT22;4904;49.152;11.004;2023-07-29T00:07:17;18.40;99.90
9730;DHT22;4904;49.152;11.004;2023-07-29T00:09:44;18.30;99.90
9730;DHT22;4904;49.152;11.004;2023-07-29T00:12:12;18.30;99.90
9730;DHT22;4904;49.152;11.004;2023-07-29T00:14:39;18.30;99.90
9730;DHT22;4904;49.152;11.004;2023-07-29T00:17:06;18.30;99.90
9730;DHT22;4904;49.152;11.004;2023-07-29T00:19:33;18.30;99.90
9730;DHT22;4904;49.152;11.004;2023-07-29T00:22:00;18.30;99.90
9730;DHT22;4904;49.152;11.004;2023-07-29T00:24:28;18.30;99.90
9730;DHT22;4904;49.152;11.004;2023-07-29T00:26:55;18.30;99.90
9730;DHT22;4904;49.152;11.004;2023-07-29T00:29:23;18.20;99.90
9730;DHT22;4904;49.152;11.004;2023-07-29T00:31:50;18.20;99.90
9730;DHT22;4904;49.152;11.004;2023-07-29T00:34:17;18.10;99.90
9730;DHT22;4904;49.152;11.004;2023-07-29T00:36:45;18.00;99.90
9730;DHT22;4904;49.152;11.004;2023-07-29T00:39:12;17.90;99.90
9730;DHT22;4904;49.152;11.004;2023-07-29T00:41:39;17.90;99.90
9730;DHT22;4904;49.152;11.004;2023-07-29T00:44:06;17.90;99.90
9730;DHT22;4904;49.152;11.004;2023-07-29T00:46:36;17.90;99.90
9730;DHT22;4904;49.152;11.004;2023-07-29T00:49:04;17.90;99.90
9730;DHT22;4904;49.152;11.004;2023-07-29T00:51:31;17.90;99.90
9730;DHT22;4904;49.152;11.004;2023-07-29T00:53:58;17.80;99.90
9730;DHT22;4904;49.152;11.004;2023-07-29T00:56:25;17.70;99.90
9730;DHT22;4904;49.152;11.004;2023-07-29T00:58:53;17.70;99.90
9730;DHT22;4904;49.152;11.004;2023-07-29T01:01:24;17.60;99.90
9730;DHT22;4904;49.152;11.004;2023-07-29T01:03:53;17.50;99.90
9730;DHT22;4904;49.152;11.004;2023-07-29T01:06:26;17.50;99.90
9730;DHT22;4904;49.152;11.004;2023-07-29T01:09:02;17.20;99.90
9730;DHT22;4904;49.152;11.004;2023-07-29T01:11:35;17.20;99.90
9730;DHT22;4904;49.152;11.004;2023-07-29T01:14:13;17.10;99.90
9730;DHT22;4904;49.152;11.004;2023-07-29T01:16:48;17.10;99.90
9730;DHT22;4904;49.152;11.004;2023-07-29T01:19:30;17.00;99.90
9730;DHT22;4904;49.152;11.004;2023-07-29T01:22:02;17.10;99.90
9730;DHT22;4904;49.152;11.004;2023-07-29T01:24:30;17.10;99.90
9730;DHT22;4904;49.152;11.004;2023-07-29T01:26:58;17.20;99.90
9730;DHT22;4904;49.152;11.004;2023-07-29T01:29:27;17.30;99.90
9730;DHT22;4904;49.152;11.004;2023-07-29T01:31:57;17.30;99.90
9730;DHT22;4904;49.152;11.004;2023-07-29T01:34:31;17.30;99.90
9730;DHT22;4904;49.152;11.004;2023-07-29T01:37:00;17.30;99.90
9730;DHT22;4904;49.152;11.004;2023-07-29T01:39:32;17.30;99.90
9730;DHT22;4904;49.152;11.004;2023-07-29T01:42:02;17.30;99.90
9730;DHT22;4904;49.152;11.004;2023-07-29T01:44:29;17.30;99.90
9730;DHT22;4904;49.152;11.004;2023-07-29T01:46:56;17.20;99.90
9730;DHT22;4904;49.152;11.004;2023-07-29T01:49:24;17.20;99.90
9730;DHT22;4904;49.152;11.004;2023-07-29T01:51:50;17.10;99.90
9730;DHT22;4904;49.152;11.004;2023-07-29T01:54:17;17.00;99.90
9730;DHT22;4904;49.152;11.004;2023-07-29T01:56:46;17.10;99.90
9730;DHT22;4904;49.152;11.004;2023-07-29T01:59:12;17.20;99.90
9730;DHT22;4904;49.152;11.004;2023-07-29T02:01:41;17.10;99.90
9730;DHT22;4904;49.152;11.004;2023-07-29T02:04:08;17.20;99.90
9730;DHT22;4904;49.152;11.004;2023-07-29T02:06:35;17.20;99.90
9730;DHT22;4904;49.152;11.004;2023-07-29T02:09:02;17.20;99.90
9730;DHT22;4904;49.152;11.004;2023-07-29T02:11:30;17.10;99.90
9730;DHT22;4904;49.152;11.004;2023-07-29T02:13:58;17.30;99.90
9730;DHT22;4904;49.152;11.004;2023-07-29T02:16:25;17.30;99.90
9730;DHT22;4904;49.152;11.004;2023-07-29T02:18:52;17.30;99.90
9730;DHT22;4904;49.152;11.004;2023-07-29T02:21:20;17.30;99.90
9730;DHT22;4904;49.152;11.004;2023-07-29T02:23:47;17.30;99.90
9730;DHT22;4904;49.152;11.004;2023-07-29T02:26:14;17.30;99.90
9730;DHT22;4904;49.152;11.004;2023-07-29T02:28:41;17.30;99.90
9730;DHT22;4904;49.152;11.004;2023-07-29T02:31:15;17.30;99.90
9730;DHT22;4904;49.152;11.004;2023-07-29T02:33:42;17.30;99.90
9730;DHT22;4904;49.152;11.004;2023-07-29T02:36:11;17.30;99.90
9730;DHT22;4904;49.152;11.004;2023-07-29T02:38:38;17.20;99.90
9730;DHT22;4904;49.152;11.004;2023-07-29T02:41:05;17.30;99.90
9730;DHT22;4904;49.152;11.004;2023-07-29T02:43:34;17.30;99.90
9730;DHT22;4904;49.152;11.004;2023-07-29T02:46:01;17.30;99.90
9730;DHT22;4904;49.152;11.004;2023-07-29T02:48:30;17.30;99.90
9730;DHT22;4904;49.152;11.004;2023-07-29T02:50:57;17.20;99.90
9730;DHT22;4904;49.152;11.004;2023-07-29T02:53:24;17.10;99.90
9730;DHT22;4904;49.152;11.004;2023-07-29T02:55:51;17.20;99.90
9730;DHT22;4904;49.152;11.004;2023-07-29T02:58:19;17.10;99.90
9730;DHT22;4904;49.152;11.004;2023-07-29T03:00:46;17.10;99.90
9730;DHT22;4904;49.152;11.004;2023-07-29T03:03:14;17.10;99.90
9730;DHT22;4904;49.152;11.004;2023-07-29T03:05:43;17.10;99.90
9730;DHT22;4904;49.152;11.004;2023-07-29T03:08:09;17.10;99.90
9730;DHT22;4904;49.152;11.004;2023-07-29T03:10:37;17.20;99.90
9730;DHT22;4904;49.152;11.004;2023-07-29T03:13:04;17.00;99.90
9730;DHT22;4904;49.152;11.004;2023-07-29T03:15:31;16.90;99.90
9730;DHT22;4904;49.152;11.004;2023-07-29T03:17:59;16.90;99.90
9730;DHT22;4904;49.152;11.004;2023-07-29T03:20:26;16.70;99.90
9730;DHT22;4904;49.152;11.004;2023-07-29T03:22:55;16.90;99.90
9730;DHT22;4904;49.152;11.004;2023-07-29T03:25:22;16.70;99.90
9730;DHT22;4904;49.152;11.004;2023-07-29T03:27:49;16.70;99.90
9730;DHT22;4904;49.152;11.004;2023-07-29T03:30:19;16.70;99.90
9730;DHT22;4904;49.152;11.004;2023-07-29T03:32:47;16.80;99.90
9730;DHT22;4904;49.152;11.004;2023-07-29T03:35:15;16.80;99.90
9730;DHT22;4904;49.152;11.004;2023-07-29T03:37:42;16.70;99.90
9730;DHT22;4904;49.152;11.004;2023-07-29T03:40:11;16.80;99.90
9730;DHT22;4904;49.152;11.004;2023-07-29T03:42:38;16.80;99.90
9730;DHT22;4904;49.152;11.004;2023-07-29T03:45:06;16.80;99.90
9730;DHT22;4904;49.152;11.004;2023-07-29T03:47:33;16.80;99.90
9730;DHT22;4904;49.152;11.004;2023-07-29T03:50:00;16.90;99.90
9730;DHT22;4904;49.152;11.004;2023-07-29T03:52:27;16.90;99.90
9730;DHT22;4904;49.152;11.004;2023-07-29T03:54:54;16.90;99.90
9730;DHT22;4904;49.152;11.004;2023-07-29T03:57:23;16.90;99.90
9730;DHT22;4904;49.152;11.004;2023-07-29T03:59:50;16.90;99.90
9730;DHT22;4904;49.152;11.004;2023-07-29T04:02:18;17.00;99.90
9730;DHT22;4904;49.152;11.004;2023-07-29T04:04:45;17.00;99.90
9730;DHT22;4904;49.152;11.004;2023-07-29T04:07:13;17.10;99.90
9730;DHT22;4904;49.152;11.004;2023-07-29T04:09:41;17.10;99.90
9730;DHT22;4904;49.152;11.004;2023-07-29T04:12:08;17.00;99.90
9730;DHT22;4904;49.152;11.004;2023-07-29T04:14:37;17.00;99.90
9730;DHT22;4904;49.152;11.004;2023-07-29T04:17:04;16.90;99.90
9730;DHT22;4904;49.152;11.004;2023-07-29T04:19:31;16.90;99.90
9730;DHT22;4904;49.152;11.004;2023-07-29T04:21:58;17.00;99.90
9730;DHT22;4904;49.152;11.004;2023-07-29T04:24:25;16.90;99.90
9730;DHT22;4904;49.152;11.004;2023-07-29T04:26:53;17.00;99.90
9730;DHT22;4904;49.152;11.004;2023-07-29T04:29:20;17.00;99.90
9730;DHT22;4904;49.152;11.004;2023-07-29T04:31:49;17.00;99.90
9730;DHT22;4904;49.152;11.004;2023-07-29T04:34:17;17.10;99.90
9730;DHT22;4904;49.152;11.004;2023-07-29T04:36:44;17.10;99.90
9730;DHT22;4904;49.152;11.004;2023-07-29T04:39:11;17.10;99.90
9730;DHT22;4904;49.152;11.004;2023-07-29T04:41:38;17.20;99.90
9730;DHT22;4904;49.152;11.004;2023-07-29T04:44:05;17.20;99.90
9730;DHT22;4904;49.152;11.004;2023-07-29T04:46:32;17.30;99.90
9730;DHT22;4904;49.152;11.004;2023-07-29T04:49:01;17.10;99.90
9730;DHT22;4904;49.152;11.004;2023-07-29T04:51:28;17.20;99.90
9730;DHT22;4904;49.152;11.004;2023-07-29T04:53:55;17.30;99.90
9730;DHT22;4904;49.152;11.004;2023-07-29T04:56:22;17.40;99.90
9730;DHT22;4904;49.152;11.004;2023-07-29T04:58:49;17.30;99.90
9730;DHT22;4904;49.152;11.004;2023-07-29T05:01:16;17.30;99.90
9730;DHT22;4904;49.152;11.004;2023-07-29T05:03:44;17.30;99.90
9730;DHT22;4904;49.152;11.004;2023-07-29T05:06:13;17.30;99.90
9730;DHT22;4904;49.152;11.004;2023-07-29T05:08:40;17.40;99.90
9730;DHT22;4904;49.152;11.004;2023-07-29T05:11:07;17.50;99.90
9730;DHT22;4904;49.152;11.004;2023-07-29T05:13:34;17.50;99.90
9730;DHT22;4904;49.152;11.004;2023-07-29T05:16:01;17.60;99.90
9730;DHT22;4904;49.152;11.004;2023-07-29T05:18:27;17.60;99.90
9730;DHT22;4904;49.152;11.004;2023-07-29T05:20:55;17.70;99.90
9730;DHT22;4904;49.152;11.004;2023-07-29T05:23:23;17.70;99.90
9730;DHT22;4904;49.152;11.004;2023-07-29T05:25:50;17.60;99.90
9730;DHT22;4904;49.152;11.004;2023-07-29T05:28:17;17.70;99.90
9730;DHT22;4904;49.152;11.004;2023-07-29T05:30:44;17.70;99.90
9730;DHT22;4904;49.152;11.004;2023-07-29T05:33:11;17.80;99.90
9730;DHT22;4904;49.152;11.004;2023-07-29T05:35:38;17.80;99.90
9730;DHT22;4904;49.152;11.004;2023-07-29T05:38:05;17.80;99.90
9730;DHT22;4904;49.152;11.004;2023-07-29T05:40:35;17.80;99.90
9730;DHT22;4904;49.152;11.004;2023-07-29T05:43:03;17.70;99.90
9730;DHT22;4904;49.152;11.004;2023-07-29T05:45:30;18.00;99.90
9730;DHT22;4904;49.152;11.004;2023-07-29T05:47:57;17.90;99.90
9730;DHT22;4904;49.152;11.004;2023-07-29T05:50:24;17.90;99.90
9730;DHT22;4904;49.152;11.004;2023-07-29T05:52:51;17.90;99.90
9730;DHT22;4904;49.152;11.004;2023-07-29T05:55:19;17.90;99.90
9730;DHT22;4904;49.152;11.004;2023-07-29T05:57:47;17.80;99.90
9730;DHT22;4904;49.152;11.004;2023-07-29T06:00:14;17.80;99.90
9730;DHT22;4904;49.152;11.004;2023-07-29T06:02:41;17.80;99.90
9730;DHT22;4904;49.152;11.004;2023-07-29T06:05:08;17.80;99.90
9730;DHT22;4904;49.152;11.004;2023-07-29T06:07:35;17.80;99.90
9730;DHT22;4904;49.152;11.004;2023-07-29T06:10:02;17.80;99.90
9730;DHT22;4904;49.152;11.004;2023-07-29T06:12:29;17.90;99.90
9730;DHT22;4904;49.152;11.004;2023-07-29T06:14:58;17.90;99.90
9730;DHT22;4904;49.152;11.004;2023-07-29T06:17:25;17.90;99.90
9730;DHT22;4904;49.152;11.004;2023-07-29T06:19:52;17.90;99.90
9730;DHT22;4904;49.152;11.004;2023-07-29T06:22:18;17.90;99.90
9730;DHT22;4904;49.152;11.004;2023-07-29T06:24:45;17.80;99.90
9730;DHT22;4904;49.152;11.004;2023-07-29T06:27:12;17.90;99.90
9730;DHT22;4904;49.152;11.004;2023-07-29T06:29:39;17.80;99.90
9730;DHT22;4904;49.152;11.004;2023-07-29T06:32:08;17.90;99.90
9730;DHT22;4904;49.152;11.004;2023-07-29T06:34:35;17.90;99.90
9730;DHT22;4904;49.152;11.004;2023-07-29T06:37:02;17.80;99.90
9730;DHT22;4904;49.152;11.004;2023-07-29T06:39:29;17.80;99.90
9730;DHT22;4904;49.152;11.004;2023-07-29T06:41:56;17.80;99.90
9730;DHT22;4904;49.152;11.004;2023-07-29T06:44:23;17.80;99.90
9730;DHT22;4904;49.152;11.004;2023-07-29T06:46:51;17.80;99.90
9730;DHT22;4904;49.152;11.004;2023-07-29T06:49:19;17.80;99.90
9730;DHT22;4904;49.152;11.004;2023-07-29T06:51:46;17.80;99.90
9730;DHT22;4904;49.152;11.004;2023-07-29T06:54:13;17.90;99.90
9730;DHT22;4904;49.152;11.004;2023-07-29T06:56:40;17.90;99.90
9730;DHT22;4904;49.152;11.004;2023-07-29T06:59:07;18.00;99.90
9730;DHT22;4904;49.152;11.004;2023-07-29T07:01:34;17.90;99.90
9730;DHT22;4904;49.152;11.004;2023-07-29T07:04:00;18.00;99.90
9730;DHT22;4904;49.152;11.004;2023-07-29T07:06:29;18.00;99.90
9730;DHT22;4904;49.152;11.004;2023-07-29T07:08:55;18.10;99.90
9730;DHT22;4904;49.152;11.004;2023-07-29T07:11:22;18.00;99.90
9730;DHT22;4904;49.152;11.004;2023-07-29T07:13:49;18.10;99.90
9730;DHT22;4904;49.152;11.004;2023-07-29T07:16:16;18.10;99.90
9730;DHT22;4904;49.152;11.004;2023-07-29T07:18:44;18.10;99.90
9730;DHT22;4904;49.152;11.004;2023-07-29T07:21:11;18.10;99.90
9730;DHT22;4904;49.152;11.004;2023-07-29T07:23:40;18.10;99.90
9730;DHT22;4904;49.152;11.004;2023-07-29T07:26:07;18.10;99.90
9730;DHT22;4904;49.152;11.004;2023-07-29T07:28:34;18.10;99.90
9730;DHT22;4904;49.152;11.004;2023-07-29T07:31:01;18.10;99.90
9730;DHT22;4904;49.152;11.004;2023-07-29T07:33:27;18.20;99.90
9730;DHT22;4904;49.152;11.004;2023-07-29T07:35:55;18.30;99.90
9730;DHT22;4904;49.152;11.004;2023-07-29T07:38:23;18.40;99.90
9730;DHT22;4904;49.152;11.004;2023-07-29T07:40:54;18.50;99.90
9730;DHT22;4904;49.152;11.004;2023-07-29T07:43:22;18.50;99.90
9730;DHT22;4904;49.152;11.004;2023-07-29T07:45:49;18.60;99.90
9730;DHT22;4904;49.152;11.004;2023-07-29T07:48:16;18.60;99.90
9730;DHT22;4904;49.152;11.004;2023-07-29T07:50:43;18.60;99.90
9730;DHT22;4904;49.152;11.004;2023-07-29T07:53:10;18.60;99.90
9730;DHT22;4904;49.152;11.004;2023-07-29T07:55:38;18.60;99.90
9730;DHT22;4904;49.152;11.004;2023-07-29T07:58:06;18.60;99.90
9730;DHT22;4904;49.152;11.004;2023-07-29T08:00:33;18.70;99.90
9730;DHT22;4904;49.152;11.004;2023-07-29T08:03:00;18.70;99.90
9730;DHT22;4904;49.152;11.004;2023-07-29T08:05:27;18.60;99.90
9730;DHT22;4904;49.152;11.004;2023-07-29T08:07:54;18.70;99.90
9730;DHT22;4904;49.152;11.004;2023-07-29T08:10:21;18.80;99.90
9730;DHT22;4904;49.152;11.004;2023-07-29T08:12:49;18.90;99.90
9730;DHT22;4904;49.152;11.004;2023-07-29T08:15:17;18.80;99.90
9730;DHT22;4904;49.152;11.004;2023-07-29T08:17:45;18.90;99.90
9730;DHT22;4904;49.152;11.004;2023-07-29T08:20:13;18.90;99.90
9730;DHT22;4904;49.152;11.004;2023-07-29T08:22:40;19.00;99.90
9730;DHT22;4904;49.152;11.004;2023-07-29T08:25:07;19.10;99.90
9730;DHT22;4904;49.152;11.004;2023-07-29T08:27:34;19.10;99.90
9730;DHT22;4904;49.152;11.004;2023-07-29T08:30:01;19.10;99.90
9730;DHT22;4904;49.152;11.004;2023-07-29T08:32:29;19.10;99.90
9730;DHT22;4904;49.152;11.004;2023-07-29T08:34:56;19.10;99.90
9730;DHT22;4904;49.152;11.004;2023-07-29T08:37:23;19.20;99.90
9730;DHT22;4904;49.152;11.004;2023-07-29T08:39:50;19.10;99.90
9730;DHT22;4904;49.152;11.004;2023-07-29T08:42:19;19.20;99.90
9730;DHT22;4904;49.152;11.004;2023-07-29T08:44:49;19.20;99.90
9730;DHT22;4904;49.152;11.004;2023-07-29T08:47:16;19.20;99.90
9730;DHT22;4904;49.152;11.004;2023-07-29T08:49:46;19.20;99.90
9730;DHT22;4904;49.152;11.004;2023-07-29T08:52:14;19.20;99.90
9730;DHT22;4904;49.152;11.004;2023-07-29T08:54:42;19.10;99.90
9730;DHT22;4904;49.152;11.004;2023-07-29T08:57:09;19.10;99.90
9730;DHT22;4904;49.152;11.004;2023-07-29T08:59:37;19.00;99.90
9730;DHT22;4904;49.152;11.004;2023-07-29T09:02:04;19.00;99.90
9730;DHT22;4904;49.152;11.004;2023-07-29T09:04:31;18.90;99.90
9730;DHT22;4904;49.152;11.004;2023-07-29T09:07:00;18.90;99.90
9730;DHT22;4904;49.152;11.004;2023-07-29T09:09:27;18.90;99.90
9730;DHT22;4904;49.152;11.004;2023-07-29T09:11:55;18.90;99.90
9730;DHT22;4904;49.152;11.004;2023-07-29T09:14:23;18.80;99.90
9730;DHT22;4904;49.152;11.004;2023-07-29T09:16:51;18.80;99.90
9730;DHT22;4904;49.152;11.004;2023-07-29T09:19:18;18.80;99.90
9730;DHT22;4904;49.152;11.004;2023-07-29T09:21:46;18.80;99.90
9730;DHT22;4904;49.152;11.004;2023-07-29T09:24:17;18.70;99.90
9730;DHT22;4904;49.152;11.004;2023-07-29T09:26:49;18.60;99.90
9730;DHT22;4904;49.152;11.004;2023-07-29T09:29:16;18.60;99.90
9730;DHT22;4904;49.152;11.004;2023-07-29T09:31:48;18.60;99.90
9730;DHT22;4904;49.152;11.004;2023-07-29T09:34:15;18.70;99.90
9730;DHT22;4904;49.152;11.004;2023-07-29T09:36:43;18.50;99.90
9730;DHT22;4904;49.152;11.004;2023-07-29T09:39:11;18.50;99.90
9730;DHT22;4904;49.152;11.004;2023-07-29T09:41:40;18.50;99.90
9730;DHT22;4904;49.152;11.004;2023-07-29T09:44:07;18.50;99.90
9730;DHT22;4904;49.152;11.004;2023-07-29T09:46:35;18.60;99.90
9730;DHT22;4904;49.152;11.004;2023-07-29T09:49:02;18.60;99.90
9730;DHT22;4904;49.152;11.004;2023-07-29T09:51:30;18.60;99.90
9730;DHT22;4904;49.152;11.004;2023-07-29T09:53:56;18.70;99.90
9730;DHT22;4904;49.152;11.004;2023-07-29T09:56:25;18.80;99.90
9730;DHT22;4904;49.152;11.004;2023-07-29T09:58:55;18.80;99.90
9730;DHT22;4904;49.152;11.004;2023-07-29T10:01:23;18.90;99.90
9730;DHT22;4904;49.152;11.004;2023-07-29T10:03:50;19.00;99.90
9730;DHT22;4904;49.152;11.004;2023-07-29T10:06:17;19.00;99.90
9730;DHT22;4904;49.152;11.004;2023-07-29T10:08:45;19.20;99.90
9730;DHT22;4904;49.152;11.004;2023-07-29T10:11:12;19.30;99.90
9730;DHT22;4904;49.152;11.004;2023-07-29T10:13:39;19.30;99.90
9730;DHT22;4904;49.152;11.004;2023-07-29T10:16:08;19.50;99.90
9730;DHT22;4904;49.152;11.004;2023-07-29T10:18:35;19.60;99.90
9730;DHT22;4904;49.152;11.004;2023-07-29T10:21:02;19.70;99.90
9730;DHT22;4904;49.152;11.004;2023-07-29T10:23:34;19.80;99.90
9730;DHT22;4904;49.152;11.004;2023-07-29T10:26:05;20.00;99.90
9730;DHT22;4904;49.152;11.004;2023-07-29T10:28:33;20.10;99.90
9730;DHT22;4904;49.152;11.004;2023-07-29T10:31:03;20.30;99.90
9730;DHT22;4904;49.152;11.004;2023-07-29T10:33:33;20.50;99.90
9730;DHT22;4904;49.152;11.004;2023-07-29T10:36:00;20.60;99.90
9730;DHT22;4904;49.152;11.004;2023-07-29T10:38:28;20.60;99.90
9730;DHT22;4904;49.152;11.004;2023-07-29T10:40:56;20.70;99.90
9730;DHT22;4904;49.152;11.004;2023-07-29T10:43:26;20.70;99.90
9730;DHT22;4904;49.152;11.004;2023-07-29T10:45:55;20.80;99.90
9730;DHT22;4904;49.152;11.004;2023-07-29T10:48:43;20.90;99.90
9730;DHT22;4904;49.152;11.004;2023-07-29T10:51:23;21.10;99.90
9730;DHT22;4904;49.152;11.004;2023-07-29T10:53:52;21.50;99.90
9730;DHT22;4904;49.152;11.004;2023-07-29T10:56:28;21.60;99.90
9730;DHT22;4904;49.152;11.004;2023-07-29T10:58:56;21.70;99.90
9730;DHT22;4904;49.152;11.004;2023-07-29T11:01:28;21.80;99.90
9730;DHT22;4904;49.152;11.004;2023-07-29T11:04:22;21.70;99.90
9730;DHT22;4904;49.152;11.004;2023-07-29T11:07:23;21.90;99.90
9730;DHT22;4904;49.152;11.004;2023-07-29T11:10:03;21.90;99.90
9730;DHT22;4904;49.152;11.004;2023-07-29T11:12:41;22.00;99.90
9730;DHT22;4904;49.152;11.004;2023-07-29T11:15:14;22.00;99.90
9730;DHT22;4904;49.152;11.004;2023-07-29T11:17:43;22.10;99.90
9730;DHT22;4904;49.152;11.004;2023-07-29T11:20:12;22.20;99.90
9730;DHT22;4904;49.152;11.004;2023-07-29T11:22:39;22.20;99.90
9730;DHT22;4904;49.152;11.004;2023-07-29T11:25:08;22.20;99.90
9730;DHT22;4904;49.152;11.004;2023-07-29T11:27:35;22.20;99.90
9730;DHT22;4904;49.152;11.004;2023-07-29T11:30:05;22.20;99.90
9730;DHT22;4904;49.152;11.004;2023-07-29T11:32:34;22.10;99.90
9730;DHT22;4904;49.152;11.004;2023-07-29T11:35:03;22.10;99.90
9730;DHT22;4904;49.152;11.004;2023-07-29T11:37:33;22.00;99.90
9730;DHT22;4904;49.152;11.004;2023-07-29T11:40:00;21.90;99.90
9730;DHT22;4904;49.152;11.004;2023-07-29T11:42:27;21.80;99.90
9730;DHT22;4904;49.152;11.004;2023-07-29T11:44:56;21.80;99.90
9730;DHT22;4904;49.152;11.004;2023-07-29T11:47:24;21.70;99.90
9730;DHT22;4904;49.152;11.004;2023-07-29T11:49:51;21.70;99.90
9730;DHT22;4904;49.152;11.004;2023-07-29T11:52:19;21.70;99.90
9730;DHT22;4904;49.152;11.004;2023-07-29T11:54:48;21.60;99.90
9730;DHT22;4904;49.152;11.004;2023-07-29T11:57:16;21.60;99.90
9730;DHT22;4904;49.152;11.004;2023-07-29T11:59:43;21.40;99.90
9730;DHT22;4904;49.152;11.004;2023-07-29T12:02:13;21.40;99.90
9730;DHT22;4904;49.152;11.004;2023-07-29T12:04:41;21.30;99.90
9730;DHT22;4904;49.152;11.004;2023-07-29T12:07:08;21.20;99.90
9730;DHT22;4904;49.152;11.004;2023-07-29T12:09:35;21.10;99.90
9730;DHT22;4904;49.152;11.004;2023-07-29T12:12:06;21.10;99.90
9730;DHT22;4904;49.152;11.004;2023-07-29T12:14:33;21.00;99.90
9730;DHT22;4904;49.152;11.004;2023-07-29T12:17:01;21.10;99.90
9730;DHT22;4904;49.152;11.004;2023-07-29T12:19:32;21.10;99.90
9730;DHT22;4904;49.152;11.004;2023-07-29T12:22:00;21.00;99.90
9730;DHT22;4904;49.152;11.004;2023-07-29T12:24:27;21.00;99.90
9730;DHT22;4904;49.152;11.004;2023-07-29T12:26:54;21.00;99.90
9730;DHT22;4904;49.152;11.004;2023-07-29T12:29:22;21.10;99.90
9730;DHT22;4904;49.152;11.004;2023-07-29T12:31:56;21.10;99.90
9730;DHT22;4904;49.152;11.004;2023-07-29T12:34:25;21.10;99.90
9730;DHT22;4904;49.152;11.004;2023-07-29T12:36:52;21.10;99.90
9730;DHT22;4904;49.152;11.004;2023-07-29T12:39:21;21.20;99.90
9730;DHT22;4904;49.152;11.004;2023-07-29T12:41:50;21.30;99.90
9730;DHT22;4904;49.152;11.004;2023-07-29T12:44:17;21.30;99.90
9730;DHT22;4904;49.152;11.004;2023-07-29T12:46:46;21.40;99.90
9730;DHT22;4904;49.152;11.004;2023-07-29T12:49:13;21.40;99.90
9730;DHT22;4904;49.152;11.004;2023-07-29T12:51:40;21.40;99.90
9730;DHT22;4904;49.152;11.004;2023-07-29T12:54:07;21.50;99.90
9730;DHT22;4904;49.152;11.004;2023-07-29T12:56:35;21.60;99.90
9730;DHT22;4904;49.152;11.004;2023-07-29T12:59:02;21.80;99.90
9730;DHT22;4904;49.152;11.004;2023-07-29T13:01:29;21.80;99.90
9730;DHT22;4904;49.152;11.004;2023-07-29T13:03:58;21.90;99.90
9730;DHT22;4904;49.152;11.004;2023-07-29T13:06:24;21.90;99.90
9730;DHT22;4904;49.152;11.004;2023-07-29T13:08:52;21.80;99.90
9730;DHT22;4904;49.152;11.004;2023-07-29T13:11:19;21.80;99.90
9730;DHT22;4904;49.152;11.004;2023-07-29T13:13:46;21.80;99.90
9730;DHT22;4904;49.152;11.004;2023-07-29T13:16:13;21.80;99.90
9730;DHT22;4904;49.152;11.004;2023-07-29T13:18:40;21.80;99.90
9730;DHT22;4904;49.152;11.004;2023-07-29T13:21:08;21.90;99.90
9730;DHT22;4904;49.152;11.004;2023-07-29T13:23:35;22.00;99.90
9730;DHT22;4904;49.152;11.004;2023-07-29T13:26:02;22.00;99.90
9730;DHT22;4904;49.152;11.004;2023-07-29T13:28:29;22.00;99.90
9730;DHT22;4904;49.152;11.004;2023-07-29T13:30:56;22.10;99.90
9730;DHT22;4904;49.152;11.004;2023-07-29T13:33:23;22.10;99.90
9730;DHT22;4904;49.152;11.004;2023-07-29T13:35:50;22.20;99.90
9730;DHT22;4904;49.152;11.004;2023-07-29T13:38:19;22.30;99.90
9730;DHT22;4904;49.152;11.004;2023-07-29T13:40:46;22.40;99.90
9730;DHT22;4904;49.152;11.004;2023-07-29T13:43:16;22.50;99.90
9730;DHT22;4904;49.152;11.004;2023-07-29T13:45:43;22.70;99.90
9730;DHT22;4904;49.152;11.004;2023-07-29T13:48:10;22.80;99.90
9730;DHT22;4904;49.152;11.004;2023-07-29T13:50:37;22.80;99.90
9730;DHT22;4904;49.152;11.004;2023-07-29T13:53:04;22.90;99.90
9730;DHT22;4904;49.152;11.004;2023-07-29T13:55:32;22.90;99.90
9730;DHT22;4904;49.152;11.004;2023-07-29T13:57:59;22.90;99.90
9730;DHT22;4904;49.152;11.004;2023-07-29T14:00:26;22.90;99.90
9730;DHT22;4904;49.152;11.004;2023-07-29T14:02:53;23.00;99.90
9730;DHT22;4904;49.152;11.004;2023-07-29T14:05:20;22.90;99.90
9730;DHT22;4904;49.152;11.004;2023-07-29T14:07:47;23.00;99.90
9730;DHT22;4904;49.152;11.004;2023-07-29T14:10:14;23.10;99.90
9730;DHT22;4904;49.152;11.004;2023-07-29T14:12:43;23.20;99.90
9730;DHT22;4904;49.152;11.004;2023-07-29T14:15:10;23.20;99.90
9730;DHT22;4904;49.152;11.004;2023-07-29T14:17:37;23.40;99.90
9730;DHT22;4904;49.152;11.004;2023-07-29T14:20:05;23.40;99.90
9730;DHT22;4904;49.152;11.004;2023-07-29T14:22:33;23.50;99.90
9730;DHT22;4904;49.152;11.004;2023-07-29T14:25:00;23.50;99.90
9730;DHT22;4904;49.152;11.004;2023-07-29T14:27:27;23.70;99.90
9730;DHT22;4904;49.152;11.004;2023-07-29T14:29:56;23.70;99.90
9730;DHT22;4904;49.152;11.004;2023-07-29T14:32:23;23.80;99.90
9730;DHT22;4904;49.152;11.004;2023-07-29T14:34:50;23.80;99.90
9730;DHT22;4904;49.152;11.004;2023-07-29T14:37:17;24.00;99.90
9730;DHT22;4904;49.152;11.004;2023-07-29T14:39:44;24.10;99.90
9730;DHT22;4904;49.152;11.004;2023-07-29T14:42:11;24.20;99.90
9730;DHT22;4904;49.152;11.004;2023-07-29T14:44:38;23.90;99.90
9730;DHT22;4904;49.152;11.004;2023-07-29T14:47:08;23.90;99.90
9730;DHT22;4904;49.152;11.004;2023-07-29T14:49:35;23.70;99.90
9730;DHT22;4904;49.152;11.004;2023-07-29T14:52:02;23.70;99.90
9730;DHT22;4904;49.152;11.004;2023-07-29T14:54:29;23.70;99.90
9730;DHT22;4904;49.152;11.004;2023-07-29T14:56:56;23.70;99.90
9730;DHT22;4904;49.152;11.004;2023-07-29T14:59:23;23.80;99.90
9730;DHT22;4904;49.152;11.004;2023-07-29T15:01:50;23.90;99.90
9730;DHT22;4904;49.152;11.004;2023-07-29T15:04:18;23.90;99.90
9730;DHT22;4904;49.152;11.004;2023-07-29T15:06:45;24.10;99.90
9730;DHT22;4904;49.152;11.004;2023-07-29T15:09:12;24.40;99.90
9730;DHT22;4904;49.152;11.004;2023-07-29T15:11:39;24.60;99.90
9730;DHT22;4904;49.152;11.004;2023-07-29T15:14:06;24.50;99.90
9730;DHT22;4904;49.152;11.004;2023-07-29T15:16:33;24.40;99.90
9730;DHT22;4904;49.152;11.004;2023-07-29T15:19:01;24.30;99.90
9730;DHT22;4904;49.152;11.004;2023-07-29T15:21:30;24.40;99.90
9730;DHT22;4904;49.152;11.004;2023-07-29T15:23:59;24.40;99.90
9730;DHT22;4904;49.152;11.004;2023-07-29T15:26:25;24.20;99.90
9730;DHT22;4904;49.152;11.004;2023-07-29T15:28:53;24.40;99.90
9730;DHT22;4904;49.152;11.004;2023-07-29T15:31:21;24.50;99.90
9730;DHT22;4904;49.152;11.004;2023-07-29T15:33:48;24.50;99.90
9730;DHT22;4904;49.152;11.004;2023-07-29T15:36:14;24.60;99.90
9730;DHT22;4904;49.152;11.004;2023-07-29T15:38:43;24.60;99.90
9730;DHT22;4904;49.152;11.004;2023-07-29T15:41:10;24.40;99.90
9730;DHT22;4904;49.152;11.004;2023-07-29T15:43:37;24.30;99.90
9730;DHT22;4904;49.152;11.004;2023-07-29T15:46:04;24.40;99.90
9730;DHT22;4904;49.152;11.004;2023-07-29T15:48:31;24.60;99.90
9730;DHT22;4904;49.152;11.004;2023-07-29T15:50:58;24.60;99.90